Gassoway, Louisiana
Current Conditions -  °F | °C
As of 8:21 AM on Friday 24 Oct 2014 (Local Time) from KTVR Reporting Station
Few Clouds Few Clouds  
Wind Chill: 47°   Ceiling: Unl
Heat Index: 47°   Visibility: 7mi
Dew Point: 46°   Wind: 3mph
Humidity: 97%   Direction: 300°WNW
Pressure: 30.16"   Gusts: NA
Location:  32.8408°N, 91.231°W
Report Text: KTVR 241321Z AUTO 30003KT 7SM FEW004 08/08 A3016 RMK AO2 T00830078
Loading
Personal Weather Stations






























Interactive Weather Map
Tropical Storm Tracking
New forecast layout! Learn more

10-Day Weather Forecast

Advertisements
Track Severe Weather on mobile